IBE6400 MMMX-LEMD
Flight info
| Callsign | IBE6400 |
|---|---|
| Flight time | N/A |
| Altitude | 35000 |
| Route | NOXOS2B NOXOS UT106 AXOMU UM346 CANOA DCT EYW DCT VKZ DCT NUCAR/N0458F370 A699 SUMRS/M079F370 M327 KANUX DCT ANTIG M328 NUMBR DCT 3430N05000W 36N040W/M079F390 3730N03000W 3830N02000W DCT GUNTI/N0456F400 DCT RIVRO/N0464F410 DCT BARDI/N0461F400 M191 RIDAV |
| Aircraft | A343/H-SDE2E3FGHIJ4J5M1RWXY/LB1D1 |
Departure
| Time | 2026-05-03 22:34 |
|---|---|
| Airport | Mexico City Benito Juárez International Airport (MMMX) |
Arrival
| Time | N/A |
|---|---|
| Airport | Adolfo Suárez Madrid–Barajas Airport (LEMD) |
| Time | Latitude | Longitude | Altitude | Speed | Heading |
|---|---|---|---|---|---|
| 2026-05-03 21:47 | 19.43578 | -99.07989 | 7307 ft | 0 kts | 329° |
| 2026-05-03 22:12 | 19.43568 | -99.07983 | 7306 ft | 4 kts | 333° |
| 2026-05-03 22:13 | 19.43543 | -99.07973 | 7308 ft | 4 kts | 350° |
| 2026-05-03 22:13 | 19.43516 | -99.07972 | 7308 ft | 4 kts | 14° |
| 2026-05-03 22:13 | 19.43493 | -99.07983 | 7307 ft | 4 kts | 43° |
| 2026-05-03 22:13 | 19.43481 | -99.07998 | 7310 ft | 0 kts | 59° |
| 2026-05-03 22:19 | 19.43485 | -99.07990 | 7309 ft | 3 kts | 59° |
| 2026-05-03 22:20 | 19.43504 | -99.07957 | 7306 ft | 8 kts | 59° |
| 2026-05-03 22:20 | 19.43540 | -99.07891 | 7306 ft | 13 kts | 59° |
| 2026-05-03 22:20 | 19.43588 | -99.07807 | 7309 ft | 15 kts | 59° |
| 2026-05-03 22:20 | 19.43644 | -99.07706 | 7309 ft | 16 kts | 60° |
| 2026-05-03 22:21 | 19.43705 | -99.07598 | 7308 ft | 18 kts | 58° |
| 2026-05-03 22:21 | 19.43772 | -99.07482 | 7306 ft | 19 kts | 59° |
| 2026-05-03 22:21 | 19.43837 | -99.07362 | 7306 ft | 18 kts | 59° |
| 2026-05-03 22:21 | 19.43898 | -99.07254 | 7310 ft | 17 kts | 59° |
| 2026-05-03 22:22 | 19.43960 | -99.07144 | 7308 ft | 18 kts | 59° |
| 2026-05-03 22:22 | 19.44024 | -99.07030 | 7307 ft | 18 kts | 58° |
| 2026-05-03 22:22 | 19.44084 | -99.06921 | 7306 ft | 16 kts | 59° |
| 2026-05-03 22:22 | 19.44139 | -99.06824 | 7307 ft | 15 kts | 59° |
| 2026-05-03 22:23 | 19.44191 | -99.06733 | 7308 ft | 14 kts | 59° |
| 2026-05-03 22:23 | 19.44240 | -99.06646 | 7306 ft | 14 kts | 59° |
| 2026-05-03 22:23 | 19.44287 | -99.06562 | 7306 ft | 13 kts | 58° |
| 2026-05-03 22:23 | 19.44333 | -99.06482 | 7309 ft | 13 kts | 59° |
| 2026-05-03 22:24 | 19.44377 | -99.06403 | 7307 ft | 12 kts | 59° |
| 2026-05-03 22:24 | 19.44417 | -99.06332 | 7310 ft | 6 kts | 63° |
| 2026-05-03 22:24 | 19.44422 | -99.06287 | 7306 ft | 7 kts | 95° |
| 2026-05-03 22:24 | 19.44405 | -99.06239 | 7307 ft | 8 kts | 112° |
| 2026-05-03 22:25 | 19.44382 | -99.06179 | 7305 ft | 11 kts | 112° |
| 2026-05-03 22:25 | 19.44351 | -99.06101 | 7308 ft | 12 kts | 112° |
| 2026-05-03 22:25 | 19.44318 | -99.06016 | 7307 ft | 13 kts | 112° |
| 2026-05-03 22:25 | 19.44280 | -99.05920 | 7306 ft | 15 kts | 112° |
| 2026-05-03 22:26 | 19.44239 | -99.05811 | 7308 ft | 17 kts | 111° |
| 2026-05-03 22:26 | 19.44195 | -99.05693 | 7309 ft | 18 kts | 111° |
| 2026-05-03 22:26 | 19.44190 | -99.05581 | 7309 ft | 10 kts | 60° |
| 2026-05-03 22:26 | 19.44227 | -99.05520 | 7307 ft | 11 kts | 61° |
| 2026-05-03 22:27 | 19.44268 | -99.05443 | 7306 ft | 13 kts | 59° |
| 2026-05-03 22:27 | 19.44320 | -99.05352 | 7308 ft | 16 kts | 59° |
| 2026-05-03 22:27 | 19.44369 | -99.05267 | 7306 ft | 7 kts | 50° |
| 2026-05-03 22:27 | 19.44406 | -99.05257 | 7306 ft | 5 kts | 357° |
| 2026-05-03 22:28 | 19.44433 | -99.05266 | 7306 ft | 2 kts | 331° |
| 2026-05-03 22:28 | 19.44434 | -99.05267 | 7306 ft | 0 kts | 331° |
| 2026-05-03 22:31 | 19.44440 | -99.05270 | 7306 ft | 3 kts | 331° |
| 2026-05-03 22:31 | 19.44481 | -99.05295 | 7306 ft | 10 kts | 329° |
| 2026-05-03 22:31 | 19.44508 | -99.05352 | 7306 ft | 9 kts | 257° |
| 2026-05-03 22:32 | 19.44486 | -99.05401 | 7306 ft | 0 kts | 239° |
| 2026-05-03 22:32 | 19.44455 | -99.05456 | 7308 ft | 30 kts | 239° |
| 2026-05-03 22:33 | 19.44257 | -99.05808 | 7305 ft | 79 kts | 239° |
| 2026-05-03 22:33 | 19.43899 | -99.06446 | 7307 ft | 120 kts | 239° |
| 2026-05-03 22:33 | 19.43411 | -99.07316 | 7308 ft | 153 kts | 239° |
| 2026-05-03 22:33 | 19.42838 | -99.08351 | 7576 ft | 161 kts | 238° |
| 2026-05-03 22:34 | 19.42318 | -99.09369 | 8137 ft | 160 kts | 240° |
| 2026-05-03 22:34 | 19.41762 | -99.10469 | 8335 ft | 178 kts | 239° |
| 2026-05-03 22:34 | 19.41136 | -99.11639 | 8742 ft | 187 kts | 237° |
| 2026-05-03 22:34 | 19.40451 | -99.12869 | 8978 ft | 201 kts | 236° |
| 2026-05-03 22:35 | 19.39682 | -99.14122 | 9045 ft | 205 kts | 225° |
| 2026-05-03 22:35 | 19.38426 | -99.14758 | 9065 ft | 205 kts | 180° |
| 2026-05-03 22:35 | 19.37051 | -99.14395 | 9101 ft | 209 kts | 150° |
| 2026-05-03 22:35 | 19.35882 | -99.13434 | 9139 ft | 218 kts | 134° |
| 2026-05-03 22:36 | 19.34799 | -99.12259 | 9183 ft | 228 kts | 134° |
| 2026-05-03 22:36 | 19.33671 | -99.11021 | 9235 ft | 240 kts | 134° |
| 2026-05-03 22:36 | 19.32486 | -99.09716 | 9276 ft | 251 kts | 135° |
| 2026-05-03 22:36 | 19.31208 | -99.08401 | 9499 ft | 261 kts | 137° |
| 2026-05-03 22:37 | 19.29875 | -99.07065 | 9591 ft | 268 kts | 139° |
| 2026-05-03 22:37 | 19.28475 | -99.05693 | 9665 ft | 280 kts | 138° |
| 2026-05-03 22:37 | 19.27273 | -99.04022 | 9911 ft | 294 kts | 115° |
| 2026-05-03 22:37 | 19.26986 | -99.01875 | 10339 ft | 303 kts | 83° |
| 2026-05-03 22:38 | 19.27595 | -98.99730 | 10860 ft | 306 kts | 69° |
| 2026-05-03 22:38 | 19.28404 | -98.97653 | 11431 ft | 306 kts | 68° |
| 2026-05-03 22:38 | 19.29201 | -98.95581 | 11927 ft | 310 kts | 68° |
| 2026-05-03 22:38 | 19.30240 | -98.93587 | 12436 ft | 311 kts | 49° |
| 2026-05-03 22:39 | 19.31781 | -98.91994 | 13031 ft | 310 kts | 39° |
| 2026-05-03 22:39 | 19.33430 | -98.90518 | 13602 ft | 311 kts | 39° |
| 2026-05-03 22:39 | 19.35093 | -98.89042 | 14135 ft | 312 kts | 38° |
| 2026-05-03 22:39 | 19.36756 | -98.87555 | 14641 ft | 314 kts | 39° |
| 2026-05-03 22:40 | 19.38418 | -98.86059 | 15127 ft | 315 kts | 38° |
| 2026-05-03 22:40 | 19.40095 | -98.84545 | 15605 ft | 317 kts | 39° |
| 2026-05-03 22:40 | 19.41776 | -98.83023 | 16057 ft | 319 kts | 38° |
| 2026-05-03 22:40 | 19.43426 | -98.81437 | 16473 ft | 324 kts | 45° |
| 2026-05-03 22:41 | 19.44667 | -98.79421 | 16873 ft | 330 kts | 63° |
| 2026-05-03 22:41 | 19.45528 | -98.77154 | 17306 ft | 333 kts | 67° |
| 2026-05-03 22:41 | 19.46334 | -98.74849 | 17749 ft | 336 kts | 67° |
| 2026-05-03 22:41 | 19.47147 | -98.72515 | 18145 ft | 339 kts | 67° |
| 2026-05-03 22:42 | 19.47736 | -98.70080 | 18487 ft | 346 kts | 81° |
| 2026-05-03 22:42 | 19.47793 | -98.67493 | 18689 ft | 357 kts | 90° |
| 2026-05-03 22:42 | 19.47676 | -98.64828 | 18862 ft | 367 kts | 91° |
| 2026-05-03 22:42 | 19.47544 | -98.62090 | 19070 ft | 376 kts | 90° |
| 2026-05-03 22:43 | 19.47415 | -98.59295 | 19248 ft | 386 kts | 90° |
| 2026-05-03 22:43 | 19.47287 | -98.56416 | 19437 ft | 395 kts | 90° |
| 2026-05-03 22:43 | 19.47162 | -98.53520 | 19646 ft | 404 kts | 90° |
| 2026-05-03 22:43 | 19.47035 | -98.50511 | 19828 ft | 413 kts | 90° |
| 2026-05-03 22:44 | 19.46906 | -98.47442 | 20031 ft | 422 kts | 90° |
| 2026-05-03 22:44 | 19.46773 | -98.44309 | 20223 ft | 430 kts | 90° |
| 2026-05-03 22:44 | 19.46662 | -98.41111 | 20471 ft | 436 kts | 88° |
| 2026-05-03 22:44 | 19.46910 | -98.37911 | 20755 ft | 437 kts | 77° |
| 2026-05-03 22:45 | 19.47731 | -98.34820 | 21082 ft | 437 kts | 67° |
| 2026-05-03 22:45 | 19.48814 | -98.31810 | 21376 ft | 440 kts | 66° |
| 2026-05-03 22:45 | 19.49936 | -98.28798 | 21675 ft | 443 kts | 66° |
| 2026-05-03 22:45 | 19.51070 | -98.25748 | 22018 ft | 444 kts | 66° |
| 2026-05-03 22:46 | 19.52198 | -98.22698 | 22365 ft | 446 kts | 66° |
| 2026-05-03 22:46 | 19.53330 | -98.19631 | 22703 ft | 448 kts | 66° |
| 2026-05-03 22:46 | 19.54465 | -98.16547 | 23048 ft | 450 kts | 66° |
| 2026-05-03 22:46 | 19.55604 | -98.13446 | 23394 ft | 452 kts | 66° |
| 2026-05-03 22:47 | 19.56748 | -98.10330 | 23690 ft | 454 kts | 66° |
| 2026-05-03 22:47 | 19.57879 | -98.07244 | 23932 ft | 456 kts | 66° |
| 2026-05-03 22:47 | 19.59046 | -98.04061 | 24210 ft | 459 kts | 66° |
| 2026-05-03 22:47 | 19.60205 | -98.00898 | 24472 ft | 461 kts | 66° |
| 2026-05-03 22:48 | 19.61354 | -97.97762 | 24715 ft | 463 kts | 66° |
| 2026-05-03 22:48 | 19.62522 | -97.94571 | 24929 ft | 467 kts | 65° |
| 2026-05-03 22:48 | 19.63700 | -97.91343 | 25159 ft | 470 kts | 65° |
| 2026-05-03 22:48 | 19.64882 | -97.88105 | 25429 ft | 472 kts | 65° |
| 2026-05-03 22:49 | 19.66070 | -97.84848 | 25704 ft | 474 kts | 65° |
| 2026-05-03 22:49 | 19.67263 | -97.81579 | 25943 ft | 476 kts | 65° |
| 2026-05-03 22:49 | 19.68460 | -97.78297 | 26193 ft | 478 kts | 65° |
| 2026-05-03 22:49 | 19.69663 | -97.74995 | 26436 ft | 481 kts | 65° |
| 2026-05-03 22:50 | 19.70867 | -97.71689 | 26710 ft | 483 kts | 65° |
| 2026-05-03 22:50 | 19.72077 | -97.68367 | 26948 ft | 485 kts | 65° |
| 2026-05-03 22:50 | 19.73295 | -97.65019 | 27195 ft | 488 kts | 65° |
| 2026-05-03 22:50 | 19.74518 | -97.61655 | 27442 ft | 490 kts | 66° |
| 2026-05-03 22:51 | 19.75745 | -97.58274 | 27675 ft | 492 kts | 66° |
| 2026-05-03 22:51 | 19.76978 | -97.54876 | 27910 ft | 494 kts | 66° |
| 2026-05-03 22:51 | 19.78212 | -97.51471 | 28147 ft | 496 kts | 66° |
| 2026-05-03 22:51 | 19.79453 | -97.48046 | 28367 ft | 498 kts | 66° |
| 2026-05-03 22:52 | 19.80698 | -97.44606 | 28573 ft | 500 kts | 66° |
| 2026-05-03 22:52 | 19.81950 | -97.41146 | 28805 ft | 502 kts | 66° |
| 2026-05-03 22:52 | 19.83206 | -97.37672 | 28971 ft | 504 kts | 66° |
| 2026-05-03 22:52 | 19.84461 | -97.34202 | 29188 ft | 506 kts | 66° |
| 2026-05-03 22:53 | 19.85728 | -97.30708 | 29370 ft | 508 kts | 66° |
| 2026-05-03 22:53 | 19.86981 | -97.27240 | 29581 ft | 510 kts | 66° |
| 2026-05-03 22:53 | 19.88266 | -97.23675 | 29832 ft | 511 kts | 66° |
| 2026-05-03 22:53 | 19.89518 | -97.20194 | 30114 ft | 511 kts | 66° |
| 2026-05-03 22:54 | 19.90786 | -97.16668 | 30363 ft | 510 kts | 66° |
| 2026-05-03 22:54 | 19.92050 | -97.13151 | 30654 ft | 509 kts | 66° |
| 2026-05-03 22:54 | 19.93313 | -97.09639 | 30934 ft | 508 kts | 66° |
| 2026-05-03 22:54 | 19.94572 | -97.06137 | 31212 ft | 507 kts | 66° |
| 2026-05-03 22:55 | 19.95828 | -97.02642 | 31482 ft | 505 kts | 66° |
| 2026-05-03 22:55 | 19.97079 | -96.99156 | 31736 ft | 504 kts | 66° |
| 2026-05-03 22:55 | 19.98326 | -96.95680 | 31997 ft | 503 kts | 66° |
| 2026-05-03 22:55 | 19.99571 | -96.92207 | 32250 ft | 502 kts | 66° |
| 2026-05-03 22:56 | 20.00814 | -96.88737 | 32487 ft | 502 kts | 65° |
| 2026-05-03 22:56 | 20.02056 | -96.85269 | 32664 ft | 503 kts | 65° |
| 2026-05-03 22:56 | 20.03300 | -96.81793 | 32893 ft | 502 kts | 65° |
| 2026-05-03 22:56 | 20.04537 | -96.78335 | 33141 ft | 500 kts | 65° |
| 2026-05-03 22:57 | 20.05773 | -96.74873 | 33396 ft | 499 kts | 65° |
| 2026-05-03 22:57 | 20.07002 | -96.71430 | 33607 ft | 498 kts | 65° |
| 2026-05-03 22:57 | 20.08231 | -96.67984 | 33809 ft | 498 kts | 65° |
| 2026-05-03 22:57 | 20.09457 | -96.64545 | 34015 ft | 497 kts | 65° |
| 2026-05-03 22:58 | 20.10682 | -96.61107 | 34190 ft | 496 kts | 65° |
| 2026-05-03 22:58 | 20.11904 | -96.57676 | 34338 ft | 496 kts | 65° |
| 2026-05-03 22:58 | 20.13126 | -96.54240 | 34470 ft | 496 kts | 65° |
| 2026-05-03 22:58 | 20.14348 | -96.50804 | 34610 ft | 496 kts | 65° |
| 2026-05-03 22:59 | 20.15569 | -96.47366 | 34745 ft | 496 kts | 66° |
| 2026-05-03 22:59 | 20.16773 | -96.43976 | 34878 ft | 497 kts | 66° |
| 2026-05-03 22:59 | 20.17996 | -96.40529 | 34996 ft | 497 kts | 66° |
| 2026-05-03 23:00 | 20.20443 | -96.33626 | 35056 ft | 501 kts | 66° |
| 2026-05-03 23:00 | 20.22894 | -96.26699 | 35061 ft | 499 kts | 66° |
| 2026-05-03 23:01 | 20.25334 | -96.19793 | 35055 ft | 498 kts | 66° |
| 2026-05-03 23:01 | 20.27774 | -96.12878 | 35053 ft | 498 kts | 66° |
| 2026-05-03 23:02 | 20.30209 | -96.05968 | 35049 ft | 498 kts | 66° |
| 2026-05-03 23:02 | 20.33339 | -95.99493 | 35050 ft | 490 kts | 51° |
| 2026-05-03 23:03 | 20.37419 | -95.93685 | 35057 ft | 489 kts | 47° |
| 2026-05-03 23:03 | 20.41686 | -95.88043 | 35040 ft | 490 kts | 47° |
| 2026-05-03 23:04 | 20.45966 | -95.82393 | 35039 ft | 491 kts | 47° |
| 2026-05-03 23:04 | 20.50235 | -95.76693 | 35038 ft | 491 kts | 47° |
| 2026-05-03 23:05 | 20.54486 | -95.70981 | 35041 ft | 491 kts | 47° |
| 2026-05-03 23:05 | 20.58733 | -95.65265 | 35039 ft | 491 kts | 47° |
| 2026-05-03 23:06 | 20.62965 | -95.59565 | 35031 ft | 490 kts | 47° |
| 2026-05-03 23:06 | 20.67180 | -95.53885 | 35035 ft | 491 kts | 47° |
| 2026-05-03 23:07 | 20.71413 | -95.48175 | 35031 ft | 491 kts | 47° |
| 2026-05-03 23:07 | 20.75652 | -95.42451 | 35034 ft | 493 kts | 47° |
| 2026-05-03 23:08 | 20.79913 | -95.36693 | 35040 ft | 494 kts | 47° |
| 2026-05-03 23:08 | 20.84175 | -95.30925 | 35029 ft | 494 kts | 47° |
| 2026-05-03 23:09 | 20.88433 | -95.25157 | 35030 ft | 494 kts | 47° |
| 2026-05-03 23:09 | 20.92692 | -95.19381 | 35025 ft | 494 kts | 47° |
| 2026-05-03 23:10 | 20.96947 | -95.13607 | 35028 ft | 494 kts | 47° |
| 2026-05-03 23:10 | 21.01205 | -95.07821 | 35031 ft | 495 kts | 47° |
| 2026-05-03 23:11 | 21.05391 | -95.01971 | 35028 ft | 497 kts | 53° |
| 2026-05-03 23:11 | 21.08328 | -94.95205 | 35031 ft | 506 kts | 68° |
| 2026-05-03 23:12 | 21.10492 | -94.87999 | 35028 ft | 510 kts | 70° |
| 2026-05-03 23:12 | 21.12526 | -94.80722 | 35025 ft | 510 kts | 70° |
| 2026-05-03 23:13 | 21.14567 | -94.73445 | 35026 ft | 510 kts | 70° |
| 2026-05-03 23:13 | 21.16617 | -94.66225 | 35021 ft | 510 kts | 70° |
| 2026-05-03 23:14 | 21.18690 | -94.58953 | 35021 ft | 510 kts | 70° |
| 2026-05-03 23:14 | 21.20763 | -94.51672 | 35021 ft | 511 kts | 70° |
| 2026-05-03 23:15 | 21.22834 | -94.44380 | 35023 ft | 512 kts | 70° |
| 2026-05-03 23:15 | 21.24905 | -94.37071 | 35022 ft | 512 kts | 70° |
| 2026-05-03 23:16 | 21.26971 | -94.29767 | 35027 ft | 512 kts | 70° |
| 2026-05-03 23:16 | 21.29034 | -94.22458 | 35025 ft | 512 kts | 70° |
| 2026-05-03 23:17 | 21.31096 | -94.15142 | 35022 ft | 512 kts | 70° |
| 2026-05-03 23:17 | 21.33156 | -94.07821 | 35017 ft | 513 kts | 70° |
| 2026-05-03 23:18 | 21.35200 | -94.00542 | 35014 ft | 513 kts | 70° |
| 2026-05-03 23:18 | 21.37256 | -93.93206 | 35023 ft | 513 kts | 70° |
| 2026-05-03 23:19 | 21.39306 | -93.85880 | 35023 ft | 513 kts | 70° |
| 2026-05-03 23:19 | 21.41357 | -93.78538 | 35012 ft | 514 kts | 71° |
| 2026-05-03 23:20 | 21.43408 | -93.71182 | 35029 ft | 517 kts | 71° |
| 2026-05-03 23:20 | 21.45467 | -93.63782 | 35015 ft | 517 kts | 71° |
| 2026-05-03 23:21 | 21.47521 | -93.56384 | 35015 ft | 517 kts | 71° |
| 2026-05-03 23:21 | 21.49571 | -93.48988 | 35025 ft | 517 kts | 71° |
| 2026-05-03 23:22 | 21.52644 | -93.37876 | 35020 ft | 517 kts | 71° |
| 2026-05-03 23:22 | 21.54342 | -93.31722 | 35029 ft | 517 kts | 71° |
| 2026-05-03 23:23 | 21.56386 | -93.24302 | 35020 ft | 518 kts | 71° |
| 2026-05-03 23:23 | 21.58426 | -93.16883 | 35025 ft | 517 kts | 71° |
| 2026-05-03 23:24 | 21.60462 | -93.09466 | 35013 ft | 518 kts | 71° |
| 2026-05-03 23:24 | 21.62494 | -93.02047 | 35015 ft | 518 kts | 71° |
| 2026-05-03 23:25 | 21.64527 | -92.94614 | 35013 ft | 518 kts | 71° |
| 2026-05-03 23:25 | 21.66556 | -92.87178 | 35026 ft | 518 kts | 71° |
| 2026-05-03 23:26 | 21.68585 | -92.79727 | 35016 ft | 519 kts | 71° |
| 2026-05-03 23:26 | 21.70595 | -92.72334 | 35015 ft | 519 kts | 71° |
| 2026-05-03 23:27 | 21.72617 | -92.64888 | 35013 ft | 519 kts | 72° |
| 2026-05-03 23:27 | 21.74636 | -92.57432 | 35011 ft | 519 kts | 72° |
| 2026-05-03 23:28 | 21.76654 | -92.49965 | 35024 ft | 519 kts | 72° |
| 2026-05-03 23:28 | 21.78668 | -92.42499 | 35023 ft | 520 kts | 71° |
| 2026-05-03 23:29 | 21.80688 | -92.35000 | 35018 ft | 522 kts | 71° |
| 2026-05-03 23:29 | 21.82705 | -92.27496 | 35014 ft | 522 kts | 71° |
| 2026-05-03 23:30 | 21.84718 | -92.19989 | 35016 ft | 522 kts | 71° |
| 2026-05-03 23:30 | 21.86729 | -92.12479 | 35018 ft | 522 kts | 71° |
| 2026-05-03 23:31 | 21.88720 | -92.05024 | 35018 ft | 522 kts | 71° |
| 2026-05-03 23:31 | 21.90723 | -91.97515 | 35017 ft | 522 kts | 71° |
| 2026-05-03 23:32 | 21.92722 | -91.90002 | 35024 ft | 522 kts | 71° |
| 2026-05-03 23:32 | 21.94722 | -91.82474 | 35019 ft | 523 kts | 71° |
| 2026-05-03 23:33 | 21.96720 | -91.74937 | 35019 ft | 523 kts | 71° |
| 2026-05-03 23:33 | 21.98712 | -91.67405 | 35015 ft | 523 kts | 71° |
| 2026-05-03 23:34 | 22.00702 | -91.59867 | 35015 ft | 523 kts | 71° |
| 2026-05-03 23:34 | 22.02690 | -91.52323 | 35011 ft | 523 kts | 72° |
| 2026-05-03 23:35 | 22.04674 | -91.44782 | 35012 ft | 523 kts | 72° |
| 2026-05-03 23:35 | 22.06645 | -91.37284 | 35018 ft | 523 kts | 72° |
| 2026-05-03 23:36 | 22.08618 | -91.29730 | 35018 ft | 523 kts | 72° |
| 2026-05-03 23:36 | 22.10585 | -91.22190 | 35016 ft | 523 kts | 72° |
| 2026-05-03 23:37 | 22.12554 | -91.14630 | 35018 ft | 524 kts | 72° |
| 2026-05-03 23:37 | 22.14524 | -91.07051 | 35021 ft | 527 kts | 72° |
| 2026-05-03 23:38 | 22.16502 | -90.99436 | 35017 ft | 528 kts | 72° |
| 2026-05-03 23:38 | 22.18479 | -90.91804 | 35013 ft | 528 kts | 72° |
| 2026-05-03 23:39 | 22.20450 | -90.84178 | 35012 ft | 528 kts | 72° |
| 2026-05-03 23:39 | 22.22418 | -90.76548 | 35018 ft | 528 kts | 72° |
| 2026-05-03 23:40 | 22.24383 | -90.68916 | 35013 ft | 528 kts | 72° |
| 2026-05-03 23:40 | 22.26346 | -90.61271 | 35013 ft | 528 kts | 72° |
| 2026-05-03 23:41 | 22.28306 | -90.53623 | 35013 ft | 528 kts | 72° |
| 2026-05-03 23:41 | 22.30263 | -90.45981 | 35013 ft | 528 kts | 72° |
| 2026-05-03 23:42 | 22.32218 | -90.38330 | 35013 ft | 528 kts | 72° |
| 2026-05-03 23:42 | 22.34154 | -90.30722 | 35018 ft | 529 kts | 72° |
| 2026-05-03 23:43 | 22.36106 | -90.23049 | 35014 ft | 529 kts | 73° |
| 2026-05-03 23:43 | 22.38046 | -90.15372 | 35014 ft | 530 kts | 73° |
| 2026-05-03 23:44 | 22.39983 | -90.07689 | 35018 ft | 529 kts | 73° |
| 2026-05-03 23:44 | 22.41917 | -90.00015 | 35016 ft | 529 kts | 73° |
| 2026-05-03 23:45 | 22.43849 | -89.92334 | 35011 ft | 529 kts | 73° |
| 2026-05-03 23:45 | 22.45776 | -89.84659 | 35049 ft | 529 kts | 73° |
| 2026-05-03 23:46 | 22.47704 | -89.76951 | 35019 ft | 533 kts | 72° |
| 2026-05-03 23:46 | 22.49648 | -89.69200 | 35017 ft | 534 kts | 72° |
| 2026-05-03 23:47 | 22.51584 | -89.61457 | 35015 ft | 535 kts | 72° |
| 2026-05-03 23:47 | 22.53505 | -89.53746 | 35014 ft | 535 kts | 72° |
| 2026-05-03 23:48 | 22.55438 | -89.45971 | 35003 ft | 535 kts | 72° |
| 2026-05-03 23:48 | 22.57366 | -89.38207 | 35007 ft | 535 kts | 72° |
| 2026-05-03 23:49 | 22.59290 | -89.30440 | 35017 ft | 535 kts | 72° |
| 2026-05-03 23:49 | 22.61212 | -89.22666 | 35011 ft | 535 kts | 73° |
| 2026-05-03 23:50 | 22.62820 | -89.16150 | 35020 ft | 534 kts | 73° |
| 2026-05-03 23:50 | 22.65042 | -89.07122 | 35012 ft | 534 kts | 73° |
| 2026-05-03 23:51 | 22.66949 | -88.99354 | 35018 ft | 534 kts | 73° |
| 2026-05-03 23:51 | 22.68854 | -88.91581 | 35015 ft | 534 kts | 73° |
| 2026-05-03 23:52 | 22.70754 | -88.83806 | 35009 ft | 534 kts | 73° |
| 2026-05-03 23:52 | 22.72652 | -88.76028 | 35016 ft | 534 kts | 73° |
| 2026-05-03 23:53 | 22.74546 | -88.68244 | 35013 ft | 534 kts | 73° |
| 2026-05-03 23:53 | 22.76436 | -88.60460 | 35015 ft | 534 kts | 73° |
| 2026-05-03 23:54 | 22.78327 | -88.52658 | 35011 ft | 535 kts | 73° |
| 2026-05-03 23:54 | 22.80215 | -88.44839 | 35007 ft | 538 kts | 73° |
| 2026-05-03 23:55 | 22.82104 | -88.36982 | 35006 ft | 538 kts | 73° |
| 2026-05-03 23:55 | 22.83977 | -88.29177 | 35013 ft | 538 kts | 73° |
| 2026-05-03 23:56 | 22.85861 | -88.21323 | 35012 ft | 538 kts | 73° |
| 2026-05-03 23:56 | 22.87742 | -88.13469 | 35009 ft | 538 kts | 73° |
| 2026-05-03 23:57 | 22.89615 | -88.05607 | 35010 ft | 539 kts | 74° |
| 2026-05-03 23:57 | 22.91488 | -87.97733 | 35007 ft | 539 kts | 74° |
| 2026-05-03 23:58 | 22.93360 | -87.89848 | 35007 ft | 539 kts | 74° |
| 2026-05-03 23:58 | 22.95226 | -87.81970 | 35008 ft | 539 kts | 74° |
| 2026-05-03 23:59 | 22.97089 | -87.74088 | 35012 ft | 539 kts | 74° |
| 2026-05-03 23:59 | 22.98951 | -87.66193 | 35010 ft | 540 kts | 75° |
| 2026-05-04 00:00 | 23.00808 | -87.58299 | 35012 ft | 540 kts | 75° |
| 2026-05-04 00:00 | 23.02662 | -87.50401 | 35009 ft | 540 kts | 75° |
| 2026-05-04 00:01 | 23.04515 | -87.42484 | 35009 ft | 540 kts | 75° |
| 2026-05-04 00:01 | 23.06347 | -87.34639 | 35010 ft | 540 kts | 75° |
| 2026-05-04 00:02 | 23.08185 | -87.26752 | 35009 ft | 538 kts | 75° |
| 2026-05-04 00:02 | 23.10019 | -87.18860 | 35017 ft | 541 kts | 75° |
| 2026-05-04 00:03 | 23.11859 | -87.10927 | 35014 ft | 542 kts | 75° |
| 2026-05-04 00:03 | 23.13691 | -87.03007 | 35013 ft | 542 kts | 75° |
| 2026-05-04 00:04 | 23.15523 | -86.95067 | 35013 ft | 542 kts | 75° |
| 2026-05-04 00:04 | 23.17354 | -86.87120 | 35011 ft | 542 kts | 75° |
| 2026-05-04 00:05 | 23.19178 | -86.79175 | 35011 ft | 542 kts | 75° |
| 2026-05-04 00:05 | 23.20998 | -86.71225 | 35011 ft | 542 kts | 75° |
| 2026-05-04 00:06 | 23.22820 | -86.63258 | 35016 ft | 542 kts | 75° |
| 2026-05-04 00:06 | 23.24634 | -86.55323 | 35018 ft | 542 kts | 75° |
| 2026-05-04 00:07 | 23.26449 | -86.47362 | 35017 ft | 543 kts | 75° |
| 2026-05-04 00:07 | 23.28250 | -86.39444 | 35017 ft | 543 kts | 75° |
| 2026-05-04 00:08 | 23.30072 | -86.31423 | 35010 ft | 543 kts | 75° |
| 2026-05-04 00:08 | 23.31861 | -86.23496 | 35007 ft | 543 kts | 75° |
| 2026-05-04 00:09 | 23.33660 | -86.15467 | 35010 ft | 543 kts | 75° |
| 2026-05-04 00:09 | 23.35429 | -86.07557 | 35016 ft | 543 kts | 75° |
| 2026-05-04 00:10 | 23.36922 | -86.00876 | 35014 ft | 543 kts | 75° |
| 2026-05-04 00:10 | 23.38712 | -85.92877 | 35019 ft | 544 kts | 75° |
| 2026-05-04 00:11 | 23.40497 | -85.84855 | 35012 ft | 546 kts | 75° |
| 2026-05-04 00:11 | 23.42269 | -85.76867 | 35012 ft | 546 kts | 75° |
| 2026-05-04 00:12 | 23.44048 | -85.68832 | 35015 ft | 546 kts | 76° |
| 2026-05-04 00:12 | 23.45824 | -85.60794 | 35015 ft | 546 kts | 76° |
| 2026-05-04 00:13 | 23.47596 | -85.52753 | 35015 ft | 546 kts | 76° |
| 2026-05-04 00:13 | 23.49373 | -85.44708 | 35015 ft | 546 kts | 76° |
| 2026-05-04 00:14 | 23.51137 | -85.36666 | 35015 ft | 546 kts | 76° |
| 2026-05-04 00:14 | 23.52899 | -85.28615 | 35015 ft | 546 kts | 76° |
| 2026-05-04 00:15 | 23.54656 | -85.20566 | 35015 ft | 546 kts | 76° |
| 2026-05-04 00:15 | 23.56414 | -85.12501 | 35015 ft | 546 kts | 76° |
| 2026-05-04 00:16 | 23.58168 | -85.04453 | 35009 ft | 546 kts | 76° |
| 2026-05-04 00:16 | 23.59912 | -84.96401 | 35015 ft | 546 kts | 76° |
| 2026-05-04 00:17 | 23.61649 | -84.88349 | 35015 ft | 546 kts | 76° |